createdAt,value
2023-04-19T00:01:15.841Z,88.79
2023-04-19T00:05:18.885Z,88.47
2023-04-19T00:07:20.391Z,88.16
2023-04-19T00:09:21.673Z,88.4
2023-04-19T00:11:22.948Z,88.55
2023-04-19T00:13:24.148Z,88.44
2023-04-19T00:17:27.564Z,88.58
2023-04-19T00:21:30.427Z,88.92
2023-04-19T00:23:32.340Z,88.7
2023-04-19T00:27:35.500Z,89.1
2023-04-19T00:31:37.677Z,89.3
2023-04-19T00:33:39.592Z,88.92
2023-04-19T00:37:43.411Z,88.95
2023-04-19T00:39:44.847Z,88.97
2023-04-19T00:43:47.852Z,89.13
2023-04-19T00:47:50.640Z,89.35
2023-04-19T00:49:52.327Z,89.19
2023-04-19T00:53:56.133Z,89.49
2023-04-19T00:55:57.675Z,89.7
2023-04-19T01:00:00.379Z,89.72
2023-04-19T01:04:03.057Z,89.61
2023-04-19T01:06:04.189Z,89.63
2023-04-19T01:10:07.728Z,89.55
2023-04-19T01:14:09.866Z,89.05
2023-04-19T01:16:11.502Z,89.23
2023-04-19T01:20:15.005Z,89.39
2023-04-19T01:22:15.982Z,89.55
2023-04-19T01:24:17.865Z,89.8
2023-04-19T01:26:19.144Z,89.91
2023-04-19T01:30:21.632Z,90.17
2023-04-19T01:32:23.310Z,90.35
2023-04-19T01:34:25.182Z,90.51
2023-04-19T01:36:26.320Z,90.26
2023-04-19T01:38:27.793Z,89.94
2023-04-19T01:42:30.854Z,89.76
2023-04-19T01:44:32.779Z,89.87
2023-04-19T01:46:33.962Z,90.01
2023-04-19T01:48:35.399Z,90.17
2023-04-19T01:52:38.330Z,90.56
2023-04-19T01:54:39.847Z,90.68
2023-04-19T01:58:42.200Z,90.77
2023-04-19T02:02:45.237Z,90.86
2023-04-19T02:04:46.378Z,91.3
2023-04-19T02:08:49.372Z,91.93
2023-04-19T02:12:52.126Z,92.52
2023-04-19T02:14:54.013Z,92.57
2023-04-19T02:18:56.887Z,92.57
2023-04-19T02:20:58.635Z,92.6
2023-04-19T02:25:01.641Z,93.37
2023-04-19T02:29:05.664Z,93.63
2023-04-19T02:31:05.429Z,93.81
2023-04-19T02:35:08.412Z,93.74
2023-04-19T02:37:10.195Z,93.8
2023-04-19T02:41:12.576Z,94.01
2023-04-19T02:45:15.614Z,93.91
2023-04-19T02:47:16.876Z,93.92
2023-04-19T02:51:20.355Z,93.72
2023-04-19T02:55:23.128Z,94.05
2023-04-19T02:57:24.137Z,94.2
2023-04-19T03:02:10.891Z,94.28
2023-04-19T03:06:14.074Z,93.58
2023-04-19T03:08:16.015Z,93.94
2023-04-19T03:12:19.551Z,94.1
2023-04-19T03:14:21.320Z,94.29
2023-04-19T03:18:24.493Z,94.18
2023-04-19T03:22:27.261Z,94.19
2023-04-19T03:24:28.448Z,94.2
2023-04-19T03:28:31.614Z,94.04
2023-04-19T03:32:34.164Z,93.8
2023-04-19T03:34:35.940Z,93.89
2023-04-19T03:38:40.856Z,94.02
2023-04-19T03:40:40.093Z,93.95
2023-04-19T03:44:43.273Z,94.52
2023-04-19T03:48:46.234Z,94.52
2023-04-19T03:50:47.501Z,94.66
2023-04-19T03:54:50.403Z,94.7
2023-04-19T03:56:51.490Z,95.04
2023-04-19T04:00:54.702Z,95.19
2023-04-19T04:04:58.631Z,95.18
2023-04-19T04:07:00.341Z,95.14
2023-04-19T04:11:03.157Z,95.18
2023-04-19T04:15:05.773Z,95.36
2023-04-19T04:17:07.264Z,95.64
2023-04-19T04:21:09.865Z,95.8
2023-04-19T04:23:11.550Z,95.98
2023-04-19T04:27:14.512Z,96.52
2023-04-19T04:31:18.174Z,96.54
2023-04-19T04:33:19.905Z,96.53
2023-04-19T04:37:23.109Z,96.67
2023-04-19T04:39:24.683Z,96.52
2023-04-19T04:43:28.422Z,96.38
2023-04-19T04:47:30.877Z,96.47
2023-04-19T04:49:32.323Z,96.46
2023-04-19T04:53:34.922Z,96.26
2023-04-19T04:59:38.678Z,96.36
2023-04-19T05:03:42.256Z,96.6
2023-04-19T05:05:45.167Z,96.55
2023-04-19T05:07:45.152Z,96.62
2023-04-19T05:09:46.846Z,96.5
2023-04-19T05:13:50.437Z,96.46
2023-04-19T05:15:52.099Z,96.48
2023-04-19T05:17:53.817Z,96.48
2023-04-19T05:19:55.162Z,96.46
2023-04-19T05:21:56.411Z,96.46
2023-04-19T05:25:59.037Z,96.32
2023-04-19T05:28:00.133Z,96.09
2023-04-19T05:30:02.012Z,96.04
2023-04-19T05:32:03.545Z,95.94
2023-04-19T05:36:06.222Z,95.62
2023-04-19T05:38:08.094Z,95.53
2023-04-19T05:42:10.911Z,95.36
2023-04-19T05:46:13.484Z,95.03
2023-04-19T05:48:14.491Z,95.05
2023-04-19T05:52:17.001Z,95.04
2023-04-19T05:56:19.958Z,95.28
2023-04-19T05:58:21.770Z,95.34
2023-04-19T06:02:25.345Z,95.79
2023-04-19T06:04:26.492Z,95.65
2023-04-19T06:08:29.255Z,95.24
2023-04-19T06:12:31.992Z,94.65
2023-04-19T06:14:32.991Z,94.73
2023-04-19T06:18:35.964Z,94.08
2023-04-19T06:24:40.553Z,94.37
2023-04-19T06:28:43.745Z,93.72
2023-04-19T06:30:45.264Z,93.72
2023-04-19T06:34:48.157Z,93.04
2023-04-19T06:38:50.681Z,93.28
2023-04-19T06:40:52.259Z,93.26
2023-04-19T06:44:55.251Z,92.9
2023-04-19T06:46:57.185Z,92.8
2023-04-19T06:51:00.154Z,92.71
2023-04-19T06:55:03.450Z,92.79
2023-04-19T06:57:04.465Z,92.58
2023-04-19T07:01:06.689Z,92.89
2023-04-19T07:03:08.680Z,92.97
2023-04-19T07:07:11.533Z,93.21
2023-04-19T07:11:14.226Z,92.95
2023-04-19T07:13:15.976Z,93.2
2023-04-19T07:17:19.169Z,92.02
2023-04-19T07:19:20.648Z,91.2
2023-04-19T07:21:21.727Z,91.06
2023-04-19T07:23:23.296Z,90.6
2023-04-19T07:27:25.644Z,89.04
2023-04-19T07:29:26.682Z,88.55
2023-04-19T07:31:28.431Z,88.25
2023-04-19T07:33:29.522Z,88.39
2023-04-19T07:35:31.016Z,88.73
2023-04-19T07:39:34.012Z,88.25
2023-04-19T07:43:36.936Z,87.53
2023-04-19T07:45:37.991Z,86.82
2023-04-19T07:49:40.650Z,85.73
2023-04-19T07:51:42.358Z,86.08
2023-04-19T07:55:45.656Z,86.44
2023-04-19T07:59:48.208Z,85.87
2023-04-19T08:01:50.097Z,87.53
2023-04-19T08:05:53.078Z,86.02
2023-04-19T08:09:56.478Z,86.31
2023-04-19T08:11:57.671Z,85.91
2023-04-19T08:18:02.335Z,85.08
2023-04-19T08:22:04.598Z,84.79
2023-04-19T08:26:08.079Z,85.77
2023-04-19T08:28:09.517Z,85.61
2023-04-19T08:32:12.557Z,87.2
2023-04-19T08:34:13.526Z,87.44
2023-04-19T08:38:16.392Z,85.52
2023-04-19T08:44:29.107Z,85.34
2023-04-19T08:48:23.744Z,86.39
2023-04-19T08:52:26.857Z,86.16
2023-04-19T08:54:28.330Z,86
2023-04-19T08:58:41.212Z,86.35
2023-04-19T09:00:32.598Z,85.81
2023-04-19T09:04:37.195Z,85.29
2023-04-19T09:08:38.740Z,84.59
2023-04-19T09:10:39.819Z,85.28
2023-04-19T09:14:45.086Z,84.63
2023-04-19T09:16:44.023Z,84.22
2023-04-19T09:20:46.546Z,84.79
2023-04-19T09:26:51.867Z,84.12
2023-04-19T09:31:03.449Z,85.22
2023-04-19T09:34:58.137Z,85.29
2023-04-19T09:37:08.828Z,86.32
2023-04-19T09:41:02.449Z,84.93
2023-04-19T09:43:17.763Z,85.7
2023-04-19T09:45:48.501Z,85.77
2023-04-19T09:47:49.947Z,85.62
2023-04-19T09:49:51.442Z,86.17
2023-04-19T09:51:52.407Z,86.11
2023-04-19T09:53:54.244Z,85.96
2023-04-19T09:57:57.706Z,85.19
2023-04-19T09:59:59.494Z,84.68
2023-04-19T10:02:00.537Z,85.19
2023-04-19T10:04:10.202Z,85.38
2023-04-19T10:08:04.684Z,82.76
2023-04-19T10:10:16.402Z,83.3
2023-04-19T10:14:08.149Z,84.4
2023-04-19T10:18:10.984Z,81.97
2023-04-19T10:20:12.861Z,82.16
2023-04-19T10:24:16.121Z,80.51
2023-04-19T10:28:19.020Z,79.42
2023-04-19T10:30:20.634Z,79.09
2023-04-19T10:32:22.672Z,79.07
2023-04-19T10:36:25.012Z,76.6
2023-04-19T10:40:28.032Z,75.58
2023-04-19T10:44:30.532Z,78.3
2023-04-19T10:46:31.964Z,77.93
2023-04-19T10:50:34.808Z,77.02
2023-04-19T10:52:35.838Z,75.72
2023-04-19T10:56:37.970Z,77.26
2023-04-19T11:00:40.983Z,75.53
2023-04-19T11:02:42.868Z,75.05
2023-04-19T11:06:45.320Z,75.28
2023-04-19T11:10:48.889Z,76.78
2023-04-19T11:12:49.770Z,78.83
2023-04-19T11:16:53.660Z,73.84
2023-04-19T11:18:55.043Z,72.17
2023-04-19T11:22:57.988Z,71.55
2023-04-19T11:27:01.640Z,72.31
2023-04-19T11:29:02.932Z,71.83
2023-04-19T11:33:06.235Z,71.78
2023-04-19T11:35:07.677Z,73.61
2023-04-19T11:39:11.497Z,72.76
2023-04-19T11:43:13.359Z,68.72
2023-04-19T11:45:22.281Z,70.82
2023-04-19T11:49:18.185Z,69.17
2023-04-19T11:53:20.193Z,69.75
2023-04-19T11:55:21.783Z,65.15
2023-04-19T11:59:24.660Z,69.28
2023-04-19T12:01:26.428Z,68.35
2023-04-19T12:05:28.951Z,67.57
2023-04-19T12:09:30.747Z,64.55
2023-04-19T12:11:32.217Z,66.1
2023-04-19T12:15:34.962Z,64.52
2023-04-19T12:17:39.990Z,66.44
2023-04-19T12:21:38.874Z,63.69
2023-04-19T12:25:41.391Z,64.8
2023-04-19T12:27:42.536Z,66.38
2023-04-19T12:31:45.008Z,65.84
2023-04-19T12:35:48.875Z,56.56
2023-04-19T12:37:50.307Z,58.67
2023-04-19T12:41:52.596Z,60.45
2023-04-19T12:43:54.281Z,53.08
2023-04-19T12:45:55.733Z,52.71
2023-04-19T12:47:57.057Z,54.01
2023-04-19T12:51:59.301Z,57.68
2023-04-19T12:54:00.862Z,52.57
2023-04-19T12:58:03.941Z,58.33
2023-04-19T13:00:05.282Z,51.34
2023-04-19T13:04:08.638Z,49.44
2023-04-19T13:08:10.782Z,49.09
2023-04-19T13:10:12.144Z,51.38
2023-04-19T13:14:14.951Z,48.22
2023-04-19T13:16:15.704Z,40.67
2023-04-19T13:20:19.324Z,38.21
2023-04-19T13:24:22.745Z,39.6
2023-04-19T13:26:23.928Z,42.68
2023-04-19T13:30:26.029Z,42.63
2023-04-19T13:34:29.303Z,40.81
2023-04-19T13:36:30.657Z,41.75
2023-04-19T13:40:33.282Z,43.81
2023-04-19T13:42:34.693Z,43.07
2023-04-19T13:46:37.199Z,45.75
2023-04-19T13:50:39.438Z,42.51
2023-04-19T13:52:40.984Z,43.21
2023-04-19T13:56:43.476Z,45.34
2023-04-19T13:58:44.605Z,41.98
2023-04-19T14:02:47.995Z,42.9
2023-04-19T14:06:49.375Z,40.86
2023-04-19T14:08:51.398Z,40.4
2023-04-19T14:12:52.883Z,40.77
2023-04-19T14:16:55.410Z,38.54
2023-04-19T14:18:56.330Z,38.97
2023-04-19T14:22:59.270Z,38.73
2023-04-19T14:25:01.211Z,36.36
2023-04-19T14:29:05.378Z,39.45
2023-04-19T14:33:07.022Z,40.13
2023-04-19T14:35:08.375Z,38.49
2023-04-19T14:39:10.995Z,40.11
2023-04-19T14:41:12.622Z,39.58
2023-04-19T14:45:15.078Z,39.94
2023-04-19T14:49:18.276Z,37.95
2023-04-19T14:51:19.621Z,37.11
2023-04-19T14:55:23.061Z,38.51
2023-04-19T14:59:26.804Z,42.94
2023-04-19T15:01:35.259Z,39.15
2023-04-19T15:05:30.547Z,40.77
2023-04-19T15:07:31.552Z,44.41
2023-04-19T15:09:33.160Z,39.78
2023-04-19T15:11:34.171Z,40.57
2023-04-19T15:15:37.215Z,41.23
2023-04-19T15:17:38.711Z,40.15
2023-04-19T15:19:39.632Z,40.66
2023-04-19T15:21:40.698Z,39.38
2023-04-19T15:23:41.650Z,41.4
2023-04-19T15:27:44.568Z,43.7
2023-04-19T15:29:45.625Z,45.36
2023-04-19T15:31:46.733Z,43.33
2023-04-19T15:33:47.659Z,39.82
2023-04-19T15:37:49.954Z,42.61
2023-04-19T15:39:51.250Z,42.23
2023-04-19T15:43:53.183Z,42.34
2023-04-19T15:47:55.446Z,43.93
2023-04-19T15:49:56.807Z,43.71
2023-04-19T15:53:59.206Z,45.79
2023-04-19T15:58:01.862Z,44.52
2023-04-19T16:00:03.520Z,44.48
2023-04-19T16:04:06.511Z,44.28
2023-04-19T16:06:07.820Z,41.96
2023-04-19T16:10:10.333Z,45.12
2023-04-19T16:14:12.399Z,43.64
2023-04-19T16:16:13.619Z,46.54
2023-04-19T16:20:16.431Z,46.14
2023-04-19T16:22:17.773Z,47.87
2023-04-19T16:26:20.584Z,47.47
2023-04-19T16:31:07.920Z,44.61
2023-04-19T16:35:09.742Z,47.52
2023-04-19T16:37:11.004Z,48.78
2023-04-19T16:41:14.578Z,48.05
2023-04-19T16:43:15.505Z,49.57
2023-04-19T16:45:16.665Z,45.79
2023-04-19T16:47:17.757Z,48.05
2023-04-19T16:51:20.643Z,48.52
2023-04-19T16:53:22.129Z,47.61
2023-04-19T16:57:25.390Z,48.71
2023-04-19T16:59:26.913Z,48.13
2023-04-19T17:03:29.279Z,44.72
2023-04-19T17:07:31.426Z,46.5
2023-04-19T17:09:33.171Z,46.13
2023-04-19T17:13:35.038Z,46.74
2023-04-19T17:15:36.091Z,46.01
2023-04-19T17:19:37.908Z,47.39
2023-04-19T17:23:40.702Z,50.32
2023-04-19T17:25:42.338Z,48.46
2023-04-19T17:29:45.303Z,49.44
2023-04-19T17:33:49.048Z,49.39
2023-04-19T17:35:50.923Z,49.02
2023-04-19T17:39:54.113Z,47.96
2023-04-19T17:41:57.307Z,49.82
2023-04-19T17:46:01.083Z,50.12
2023-04-19T17:50:05.178Z,51.55
2023-04-19T17:52:07.101Z,50.78
2023-04-19T17:56:09.490Z,52.37
2023-04-19T17:58:11.020Z,51.56
2023-04-19T18:02:14.441Z,52.36
2023-04-19T18:06:17.245Z,53.37
